TimeEDT,TemperatureF,Dew PointF,Humidity,Sea Level PressureIn,VisibilityMPH,Wind Direction,Wind SpeedMPH,Gust SpeedMPH,PrecipitationIn,Events,Conditions,WindDirDegrees,DateUTC
12:35 AM,63.7,60.4,89,30.09,10.0,Calm,Calm,-,N/A,,Clear,0,2013-05-18 04:35:00
12:55 AM,66.0,60.3,82,30.09,10.0,South,3.5,-,N/A,,Clear,170,2013-05-18 04:55:00
1:15 AM,70.7,60.8,71,30.09,10.0,South,3.5,-,N/A,,Clear,180,2013-05-18 05:15:00
1:35 AM,70.5,60.8,71,30.08,10.0,Calm,Calm,-,N/A,,Clear,0,2013-05-18 05:35:00
1:55 AM,70.0,61.0,73,30.08,10.0,Calm,Calm,-,N/A,,Clear,0,2013-05-18 05:55:00
2:15 AM,69.3,61.3,76,30.09,10.0,Calm,Calm,-,N/A,,Clear,0,2013-05-18 06:15:00
2:35 AM,69.1,61.7,77,30.08,10.0,South,3.5,-,N/A,,Clear,190,2013-05-18 06:35:00
2:55 AM,68.4,61.7,79,30.09,10.0,Calm,Calm,-,N/A,,Clear,0,2013-05-18 06:55:00
3:15 AM,67.5,61.7,82,30.08,10.0,Calm,Calm,-,N/A,,Clear,0,2013-05-18 07:15:00
3:35 AM,67.3,61.9,83,30.08,10.0,Calm,Calm,-,N/A,,Clear,0,2013-05-18 07:35:00
3:55 AM,64.4,60.8,88,30.09,10.0,Calm,Calm,-,N/A,,Clear,0,2013-05-18 07:55:00
4:15 AM,63.9,61.0,90,30.09,10.0,Calm,Calm,-,N/A,,Clear,0,2013-05-18 08:15:00
4:35 AM,63.0,60.1,90,30.09,7.0,Calm,Calm,-,N/A,,Scattered Clouds,0,2013-05-18 08:35:00
4:55 AM,62.6,60.1,91,30.09,7.0,Calm,Calm,-,N/A,,Scattered Clouds,0,2013-05-18 08:55:00
5:15 AM,62.6,59.5,90,30.09,10.0,Calm,Calm,-,N/A,,Scattered Clouds,0,2013-05-18 09:15:00
5:35 AM,62.6,59.9,91,30.09,7.0,Calm,Calm,-,N/A,Rain,Light Rain,0,2013-05-18 09:35:00
5:55 AM,63.3,60.6,91,30.09,7.0,Calm,Calm,-,N/A,,Scattered Clouds,0,2013-05-18 09:55:00
6:15 AM,62.8,60.4,92,30.10,7.0,Calm,Calm,-,N/A,,Clear,0,2013-05-18 10:15:00
6:35 AM,62.6,60.3,92,30.11,7.0,Calm,Calm,-,N/A,,Scattered Clouds,0,2013-05-18 10:35:00
6:55 AM,62.6,60.3,92,30.11,7.0,Calm,Calm,-,N/A,,Scattered Clouds,0,2013-05-18 10:55:00
7:15 AM,63.0,60.8,93,30.12,7.0,Calm,Calm,-,N/A,,Clear,0,2013-05-18 11:15:00
7:35 AM,64.6,61.7,90,30.12,7.0,Calm,Calm,-,N/A,,Mostly Cloudy,0,2013-05-18 11:35:00
7:55 AM,66.0,62.8,89,30.13,7.0,Calm,Calm,-,N/A,,Mostly Cloudy,0,2013-05-18 11:55:00
8:15 AM,68.2,63.7,85,30.13,10.0,Calm,Calm,-,N/A,,Mostly Cloudy,0,2013-05-18 12:15:00
8:35 AM,70.7,62.8,76,30.13,10.0,Calm,Calm,-,N/A,,Scattered Clouds,0,2013-05-18 12:35:00
8:55 AM,72.3,62.2,70,30.14,10.0,SSW,3.5,-,N/A,,Scattered Clouds,200,2013-05-18 12:55:00
9:15 AM,73.6,62.4,68,30.14,10.0,SSW,4.6,-,N/A,,Scattered Clouds,200,2013-05-18 13:15:00
9:35 AM,74.1,61.7,65,30.14,10.0,SSW,5.8,-,N/A,,Scattered Clouds,210,2013-05-18 13:35:00
9:55 AM,74.5,62.1,65,30.14,10.0,South,3.5,-,N/A,,Scattered Clouds,180,2013-05-18 13:55:00
10:15 AM,75.0,61.9,64,30.14,10.0,South,5.8,-,N/A,,Mostly Cloudy,190,2013-05-18 14:15:00
10:35 AM,75.4,62.2,64,30.15,10.0,SSW,3.5,-,N/A,,Mostly Cloudy,200,2013-05-18 14:35:00
10:55 AM,78.3,62.6,58,30.14,10.0,SW,4.6,-,N/A,,Scattered Clouds,230,2013-05-18 14:55:00
11:15 AM,76.8,62.1,60,30.15,10.0,SW,3.5,-,N/A,,Mostly Cloudy,230,2013-05-18 15:15:00
11:35 AM,78.8,63.3,59,30.15,10.0,West,4.6,-,N/A,,Mostly Cloudy,280,2013-05-18 15:35:00
11:55 AM,78.4,63.1,59,30.14,10.0,SSW,4.6,-,N/A,,Mostly Cloudy,200,2013-05-18 15:55:00
12:15 PM,79.0,62.8,57,30.14,10.0,SSW,3.5,-,N/A,,Mostly Cloudy,210,2013-05-18 16:15:00
12:35 PM,79.0,63.1,58,30.14,10.0,SSW,4.6,-,N/A,,Scattered Clouds,200,2013-05-18 16:35:00
12:55 PM,79.3,63.1,57,30.13,10.0,WSW,3.5,-,N/A,,Mostly Cloudy,250,2013-05-18 16:55:00
1:15 PM,79.0,63.1,58,30.13,10.0,SSW,4.6,-,N/A,,Mostly Cloudy,200,2013-05-18 17:15:00
1:35 PM,79.2,63.5,59,30.13,10.0,Calm,Calm,-,N/A,,Scattered Clouds,0,2013-05-18 17:35:00
1:55 PM,79.7,62.8,56,30.12,10.0,Calm,Calm,-,N/A,,Scattered Clouds,0,2013-05-18 17:55:00
2:15 PM,79.7,63.0,56,30.11,10.0,Calm,Calm,-,N/A,,Scattered Clouds,0,2013-05-18 18:15:00
2:35 PM,79.9,61.2,53,30.11,10.0,West,3.5,-,N/A,,Scattered Clouds,260,2013-05-18 18:35:00
3:15 PM,79.2,62.4,56,30.10,10.0,West,3.5,-,N/A,,Clear,280,2013-05-18 19:15:00
3:35 PM,79.2,63.1,58,30.09,10.0,WNW,3.5,-,N/A,,Clear,290,2013-05-18 19:35:00
3:55 PM,78.8,63.0,58,30.09,10.0,NW,10.4,-,N/A,,Clear,320,2013-05-18 19:55:00
4:15 PM,77.5,62.8,60,30.09,10.0,NNW,8.1,-,N/A,,Scattered Clouds,330,2013-05-18 20:15:00
4:35 PM,77.2,63.3,62,30.10,10.0,North,4.6,-,N/A,,Mostly Cloudy,350,2013-05-18 20:35:00
4:55 PM,75.2,60.6,60,30.13,10.0,SE,11.5,25.3,N/A,,Overcast,130,2013-05-18 20:55:00
5:15 PM,67.8,62.2,82,30.11,10.0,SE,8.1,12.7,N/A,Rain,Light Rain,130,2013-05-18 21:15:00
5:35 PM,66.6,63.3,89,30.12,7.0,East,3.5,-,0.01,Rain,Rain,80,2013-05-18 21:35:00
6:15 PM,65.8,63.7,93,30.11,7.0,Calm,Calm,-,0.01,Rain,Light Rain,0,2013-05-18 22:15:00
6:35 PM,66.2,64.0,93,30.10,10.0,Calm,Calm,-,0.01,,Light Drizzle,0,2013-05-18 22:35:00
6:55 PM,66.6,64.9,95,30.10,10.0,Calm,Calm,-,0.01,,Light Drizzle,0,2013-05-18 22:55:00
7:15 PM,66.6,65.3,96,30.10,7.0,Calm,Calm,-,N/A,,Light Drizzle,0,2013-05-18 23:15:00
7:35 PM,67.1,65.7,95,30.11,7.0,Calm,Calm,-,N/A,Rain,Light Rain,0,2013-05-18 23:35:00
7:55 PM,66.7,65.5,96,30.11,5.0,Calm,Calm,-,N/A,,Light Drizzle,0,2013-05-18 23:55:00
8:15 PM,66.6,65.5,96,30.11,7.0,Calm,Calm,-,N/A,,Overcast,0,2013-05-19 00:15:00
8:35 PM,66.2,65.3,97,30.11,5.0,Calm,Calm,-,N/A,,Overcast,0,2013-05-19 00:35:00
8:55 PM,65.8,64.9,97,30.11,7.0,Calm,Calm,-,N/A,,Overcast,0,2013-05-19 00:55:00
9:15 PM,66.2,65.3,97,30.12,7.0,Calm,Calm,-,N/A,,Overcast,0,2013-05-19 01:15:00
9:35 PM,66.2,65.3,97,30.13,7.0,Calm,Calm,-,N/A,,Overcast,0,2013-05-19 01:35:00
10:15 PM,66.4,65.3,96,30.13,10.0,Calm,Calm,-,N/A,,Overcast,0,2013-05-19 02:15:00
10:35 PM,66.6,65.3,96,30.13,7.0,Calm,Calm,-,N/A,,Overcast,0,2013-05-19 02:35:00
10:55 PM,66.2,65.3,97,30.12,5.0,Calm,Calm,-,N/A,,Overcast,0,2013-05-19 02:55:00
11:15 PM,66.2,65.3,97,30.12,5.0,Calm,Calm,-,N/A,,Overcast,0,2013-05-19 03:15:00
11:35 PM,66.0,65.1,97,30.12,4.0,Calm,Calm,-,N/A,,Overcast,0,2013-05-19 03:35:00
11:55 PM,66.2,65.3,97,30.12,4.0,Calm,Calm,-,N/A,,Overcast,0,2013-05-19 03:55:00